This is the latest recevied weather packets stored in our database for station/object DL8BNG-13. If no packets are shown the sender has not sent any weather packets the latest 10 day(s).
| Time | Temp. | Humidity | Pressure | Rain* | Wind** | Luminosity | Snow |
|---|---|---|---|---|---|---|---|
| 1788538502 | 29.44° C | 36% | - | 0 mm | - | - | - |
| 1788537604 | 29.44° C | 36% | - | 0 mm | - | - | - |
| 1788535802 | 29.44° C | 37% | - | 0 mm | - | - | - |
| 1788532202 | 29.44° C | 36% | - | 0 mm | - | - | - |
| 1788528603 | 28.89° C | 38% | - | 0 mm | - | - | - |
| 1788525003 | 28.89° C | 37% | - | 0 mm | - | - | - |
| 1788521402 | 28.33° C | 38% | - | 0 mm | - | - | - |
| 1788517802 | 26.67° C | 42% | - | 0 mm | - | - | - |
| 1788514202 | 25° C | 48% | - | 0 mm | - | - | - |
| 1788510601 | 22.78° C | 51% | - | 0 mm | - | - | - |
| 1788509702 | 21.67° C | 53% | - | 0 mm | - | - | - |
| 1788508802 | 21.11° C | 56% | - | 0 mm | - | - | - |
| 1788507002 | 20° C | 63% | - | 0 mm | - | - | - |
| 1788506102 | 20° C | 64% | - | 0 mm | - | - | - |
| 1788505203 | 19.44° C | 65% | - | 0 mm | - | - | - |
| 1788503402 | 18.89° C | 67% | - | 0 mm | - | - | - |
| 1788502503 | 18.89° C | 68% | - | 0 mm | - | - | - |
| 1788501603 | 18.89° C | 69% | - | 0 mm | - | - | - |
| 1788499803 | 18.33° C | 73% | - | 0 mm | - | - | - |
| 1788498902 | 18.33° C | 73% | - | 0 mm | - | - | - |
| 1788498002 | 17.78° C | 73% | - | 0 mm | - | - | - |
| 1788497103 | 17.78° C | 75% | - | 0 mm | - | - | - |
| 1788496203 | 17.78° C | 75% | - | 0 mm | - | - | - |
| 1788495303 | 17.78° C | 75% | - | 0 mm | - | - | - |
| 1788494402 | 17.22° C | 77% | - | 0 mm | - | - | - |
* Rain since midnight (hover to see other rain measurements)
** Current wind speed in m/s (hover to see current wind gust speed)